sensor_id;sensor_type;location;lat;lon;timestamp;P1;durP1;ratioP1;P2;durP2;ratioP2
59734;SDS011;64362;45.620;4.920;2022-12-07T00:02:01;10.10;;;8.25;;
59734;SDS011;64362;45.620;4.920;2022-12-07T00:04:26;11.07;;;7.22;;
59734;SDS011;64362;45.620;4.920;2022-12-07T00:06:58;10.63;;;7.53;;
59734;SDS011;64362;45.620;4.920;2022-12-07T00:09:23;8.98;;;7.25;;
59734;SDS011;64362;45.620;4.920;2022-12-07T00:11:55;10.65;;;7.40;;
59734;SDS011;64362;45.620;4.920;2022-12-07T00:14:20;11.32;;;7.43;;
59734;SDS011;64362;45.620;4.920;2022-12-07T00:16:52;9.20;;;7.07;;
59734;SDS011;64362;45.620;4.920;2022-12-07T00:19:24;11.00;;;8.10;;
59734;SDS011;64362;45.620;4.920;2022-12-07T00:21:49;10.73;;;7.88;;
59734;SDS011;64362;45.620;4.920;2022-12-07T00:24:21;9.82;;;7.15;;
59734;SDS011;64362;45.620;4.920;2022-12-07T00:26:53;11.80;;;7.95;;
59734;SDS011;64362;45.620;4.920;2022-12-07T00:29:19;10.50;;;7.63;;
59734;SDS011;64362;45.620;4.920;2022-12-07T00:31:53;11.53;;;7.63;;
59734;SDS011;64362;45.620;4.920;2022-12-07T00:34:25;10.15;;;7.30;;
59734;SDS011;64362;45.620;4.920;2022-12-07T00:37:11;11.48;;;7.90;;
59734;SDS011;64362;45.620;4.920;2022-12-07T00:39:45;10.52;;;7.43;;
59734;SDS011;64362;45.620;4.920;2022-12-07T00:42:17;10.15;;;7.93;;
59734;SDS011;64362;45.620;4.920;2022-12-07T00:44:49;10.18;;;8.18;;
59734;SDS011;64362;45.620;4.920;2022-12-07T00:47:14;11.18;;;8.57;;
59734;SDS011;64362;45.620;4.920;2022-12-07T00:49:46;10.45;;;7.63;;
59734;SDS011;64362;45.620;4.920;2022-12-07T00:52:11;12.77;;;8.20;;
59734;SDS011;64362;45.620;4.920;2022-12-07T00:54:43;10.43;;;7.20;;
59734;SDS011;64362;45.620;4.920;2022-12-07T00:57:09;11.13;;;8.45;;
59734;SDS011;64362;45.620;4.920;2022-12-07T00:59:40;10.32;;;7.90;;
59734;SDS011;64362;45.620;4.920;2022-12-07T01:02:06;10.65;;;7.88;;
59734;SDS011;64362;45.620;4.920;2022-12-07T01:18:46;9.80;;;7.60;;
59734;SDS011;64362;45.620;4.920;2022-12-07T01:21:20;9.40;;;7.68;;
59734;SDS011;64362;45.620;4.920;2022-12-07T01:23:47;10.02;;;8.30;;
59734;SDS011;64362;45.620;4.920;2022-12-07T01:26:21;9.68;;;7.53;;
59734;SDS011;64362;45.620;4.920;2022-12-07T01:28:54;9.35;;;7.50;;
59734;SDS011;64362;45.620;4.920;2022-12-07T01:31:26;9.70;;;7.72;;
59734;SDS011;64362;45.620;4.920;2022-12-07T01:33:54;10.80;;;7.35;;
59734;SDS011;64362;45.620;4.920;2022-12-07T01:39:06;10.15;;;7.90;;
59734;SDS011;64362;45.620;4.920;2022-12-07T01:41:33;10.27;;;7.63;;
59734;SDS011;64362;45.620;4.920;2022-12-07T01:47:04;10.02;;;7.93;;
59734;SDS011;64362;45.620;4.920;2022-12-07T01:54:38;10.02;;;7.78;;
59734;SDS011;64362;45.620;4.920;2022-12-07T01:57:09;10.35;;;7.45;;
59734;SDS011;64362;45.620;4.920;2022-12-07T01:59:43;10.02;;;7.60;;
59734;SDS011;64362;45.620;4.920;2022-12-07T02:02:20;9.40;;;7.40;;
59734;SDS011;64362;45.620;4.920;2022-12-07T02:04:49;8.52;;;7.15;;
59734;SDS011;64362;45.620;4.920;2022-12-07T02:07:22;8.80;;;7.30;;
59734;SDS011;64362;45.620;4.920;2022-12-07T02:09:54;8.40;;;7.43;;
59734;SDS011;64362;45.620;4.920;2022-12-07T02:12:20;10.38;;;7.65;;
59734;SDS011;64362;45.620;4.920;2022-12-07T02:14:53;10.07;;;7.25;;
59734;SDS011;64362;45.620;4.920;2022-12-07T02:31:50;9.85;;;7.47;;
59734;SDS011;64362;45.620;4.920;2022-12-07T02:34:39;9.35;;;7.75;;
59734;SDS011;64362;45.620;4.920;2022-12-07T02:37:29;9.23;;;7.15;;
59734;SDS011;64362;45.620;4.920;2022-12-07T02:42:42;9.82;;;7.47;;
59734;SDS011;64362;45.620;4.920;2022-12-07T02:45:21;9.00;;;7.40;;
59734;SDS011;64362;45.620;4.920;2022-12-07T02:47:48;9.95;;;8.10;;
59734;SDS011;64362;45.620;4.920;2022-12-07T02:50:23;9.20;;;7.30;;
59734;SDS011;64362;45.620;4.920;2022-12-07T02:52:55;8.93;;;7.22;;
59734;SDS011;64362;45.620;4.920;2022-12-07T02:55:36;9.18;;;7.30;;
59734;SDS011;64362;45.620;4.920;2022-12-07T03:04:14;11.52;;;7.80;;
59734;SDS011;64362;45.620;4.920;2022-12-07T03:07:11;10.18;;;7.80;;
59734;SDS011;64362;45.620;4.920;2022-12-07T03:12:48;8.43;;;7.13;;
59734;SDS011;64362;45.620;4.920;2022-12-07T03:15:43;9.63;;;7.93;;
59734;SDS011;64362;45.620;4.920;2022-12-07T03:18:19;9.43;;;7.30;;
59734;SDS011;64362;45.620;4.920;2022-12-07T03:20:55;9.23;;;7.15;;
59734;SDS011;64362;45.620;4.920;2022-12-07T03:23:31;8.75;;;6.68;;
59734;SDS011;64362;45.620;4.920;2022-12-07T03:26:04;8.70;;;7.22;;
59734;SDS011;64362;45.620;4.920;2022-12-07T03:28:42;8.63;;;7.13;;
59734;SDS011;64362;45.620;4.920;2022-12-07T03:31:17;8.48;;;6.75;;
59734;SDS011;64362;45.620;4.920;2022-12-07T03:34:01;7.80;;;6.65;;
59734;SDS011;64362;45.620;4.920;2022-12-07T03:41:54;10.18;;;7.53;;
59734;SDS011;64362;45.620;4.920;2022-12-07T03:44:26;8.95;;;7.25;;
59734;SDS011;64362;45.620;4.920;2022-12-07T03:49:46;9.77;;;7.35;;
59734;SDS011;64362;45.620;4.920;2022-12-07T03:55:06;9.63;;;6.93;;
59734;SDS011;64362;45.620;4.920;2022-12-07T03:57:42;8.57;;;6.57;;
59734;SDS011;64362;45.620;4.920;2022-12-07T04:00:15;8.73;;;6.68;;
59734;SDS011;64362;45.620;4.920;2022-12-07T04:02:48;9.25;;;6.82;;
59734;SDS011;64362;45.620;4.920;2022-12-07T04:05:23;8.65;;;6.72;;
59734;SDS011;64362;45.620;4.920;2022-12-07T04:07:55;9.40;;;6.80;;
59734;SDS011;64362;45.620;4.920;2022-12-07T04:10:27;9.40;;;7.20;;
59734;SDS011;64362;45.620;4.920;2022-12-07T04:12:52;9.75;;;6.85;;
59734;SDS011;64362;45.620;4.920;2022-12-07T04:15:24;8.13;;;6.38;;
59734;SDS011;64362;45.620;4.920;2022-12-07T04:17:49;9.10;;;7.13;;
59734;SDS011;64362;45.620;4.920;2022-12-07T04:20:22;9.35;;;6.90;;
59734;SDS011;64362;45.620;4.920;2022-12-07T04:22:47;7.30;;;5.90;;
59734;SDS011;64362;45.620;4.920;2022-12-07T04:25:20;8.07;;;6.07;;
59734;SDS011;64362;45.620;4.920;2022-12-07T04:27:52;8.65;;;6.00;;
59734;SDS011;64362;45.620;4.920;2022-12-07T04:30:17;7.63;;;6.35;;
59734;SDS011;64362;45.620;4.920;2022-12-07T04:32:57;7.75;;;6.28;;
59734;SDS011;64362;45.620;4.920;2022-12-07T04:35:36;6.93;;;6.13;;
59734;SDS011;64362;45.620;4.920;2022-12-07T04:38:01;8.00;;;6.00;;
59734;SDS011;64362;45.620;4.920;2022-12-07T04:40:33;8.18;;;6.40;;
59734;SDS011;64362;45.620;4.920;2022-12-07T04:43:05;7.88;;;6.13;;
59734;SDS011;64362;45.620;4.920;2022-12-07T04:45:37;6.90;;;5.68;;
59734;SDS011;64362;45.620;4.920;2022-12-07T04:48:02;7.38;;;6.10;;
59734;SDS011;64362;45.620;4.920;2022-12-07T04:50:35;8.23;;;6.13;;
59734;SDS011;64362;45.620;4.920;2022-12-07T04:53:10;8.57;;;6.03;;
59734;SDS011;64362;45.620;4.920;2022-12-07T04:55:42;6.78;;;5.70;;
59734;SDS011;64362;45.620;4.920;2022-12-07T04:58:08;9.07;;;6.18;;
59734;SDS011;64362;45.620;4.920;2022-12-07T05:00:40;7.45;;;5.88;;
59734;SDS011;64362;45.620;4.920;2022-12-07T05:03:06;7.70;;;5.82;;
59734;SDS011;64362;45.620;4.920;2022-12-07T05:05:39;8.18;;;5.95;;
59734;SDS011;64362;45.620;4.920;2022-12-07T05:08:06;8.15;;;6.20;;
59734;SDS011;64362;45.620;4.920;2022-12-07T05:10:39;6.88;;;5.80;;
59734;SDS011;64362;45.620;4.920;2022-12-07T05:13:04;8.15;;;5.97;;
59734;SDS011;64362;45.620;4.920;2022-12-07T05:15:36;7.45;;;5.95;;
59734;SDS011;64362;45.620;4.920;2022-12-07T05:18:01;7.65;;;5.47;;
59734;SDS011;64362;45.620;4.920;2022-12-07T05:20:35;7.53;;;5.97;;
59734;SDS011;64362;45.620;4.920;2022-12-07T05:23:00;6.88;;;5.70;;
59734;SDS011;64362;45.620;4.920;2022-12-07T05:25:33;7.32;;;5.30;;
59734;SDS011;64362;45.620;4.920;2022-12-07T05:28:05;7.00;;;5.40;;
59734;SDS011;64362;45.620;4.920;2022-12-07T05:30:30;6.65;;;5.38;;
59734;SDS011;64362;45.620;4.920;2022-12-07T05:33:10;6.57;;;4.95;;
59734;SDS011;64362;45.620;4.920;2022-12-07T05:35:49;6.47;;;4.75;;
59734;SDS011;64362;45.620;4.920;2022-12-07T05:38:14;5.72;;;4.68;;
59734;SDS011;64362;45.620;4.920;2022-12-07T05:40:47;7.07;;;5.05;;
59734;SDS011;64362;45.620;4.920;2022-12-07T05:43:12;6.57;;;5.38;;
59734;SDS011;64362;45.620;4.920;2022-12-07T05:45:44;6.55;;;5.13;;
59734;SDS011;64362;45.620;4.920;2022-12-07T05:48:09;5.90;;;4.60;;
59734;SDS011;64362;45.620;4.920;2022-12-07T05:50:48;6.38;;;5.15;;
59734;SDS011;64362;45.620;4.920;2022-12-07T05:53:14;6.25;;;5.10;;
59734;SDS011;64362;45.620;4.920;2022-12-07T05:55:47;5.18;;;4.18;;
59734;SDS011;64362;45.620;4.920;2022-12-07T05:58:12;5.80;;;4.60;;
59734;SDS011;64362;45.620;4.920;2022-12-07T06:01:03;5.55;;;4.18;;
59734;SDS011;64362;45.620;4.920;2022-12-07T06:03:28;5.55;;;4.38;;
59734;SDS011;64362;45.620;4.920;2022-12-07T06:06:01;5.22;;;4.10;;
59734;SDS011;64362;45.620;4.920;2022-12-07T06:08:33;5.68;;;4.30;;
59734;SDS011;64362;45.620;4.920;2022-12-07T06:10:58;5.47;;;4.20;;
59734;SDS011;64362;45.620;4.920;2022-12-07T06:13:49;5.85;;;4.18;;
59734;SDS011;64362;45.620;4.920;2022-12-07T06:16:14;5.13;;;3.88;;
59734;SDS011;64362;45.620;4.920;2022-12-07T06:18:46;5.50;;;4.03;;
59734;SDS011;64362;45.620;4.920;2022-12-07T06:21:12;5.80;;;4.18;;
59734;SDS011;64362;45.620;4.920;2022-12-07T06:23:44;5.13;;;3.80;;
59734;SDS011;64362;45.620;4.920;2022-12-07T06:26:16;14.77;;;4.28;;
59734;SDS011;64362;45.620;4.920;2022-12-07T06:28:41;10.75;;;3.88;;
59734;SDS011;64362;45.620;4.920;2022-12-07T06:31:13;5.78;;;4.18;;
59734;SDS011;64362;45.620;4.920;2022-12-07T06:33:38;5.43;;;3.85;;
59734;SDS011;64362;45.620;4.920;2022-12-07T06:36:17;6.13;;;3.60;;
59734;SDS011;64362;45.620;4.920;2022-12-07T06:38:49;7.43;;;4.10;;
59734;SDS011;64362;45.620;4.920;2022-12-07T06:41:14;5.65;;;3.40;;
59734;SDS011;64362;45.620;4.920;2022-12-07T06:43:46;5.75;;;4.03;;
59734;SDS011;64362;45.620;4.920;2022-12-07T06:46:18;7.07;;;3.97;;
59734;SDS011;64362;45.620;4.920;2022-12-07T06:48:44;4.25;;;3.67;;
59734;SDS011;64362;45.620;4.920;2022-12-07T06:51:16;5.20;;;4.00;;
59734;SDS011;64362;45.620;4.920;2022-12-07T06:53:42;6.22;;;3.47;;
59734;SDS011;64362;45.620;4.920;2022-12-07T06:56:14;7.55;;;3.80;;
59734;SDS011;64362;45.620;4.920;2022-12-07T06:58:40;5.38;;;3.72;;
59734;SDS011;64362;45.620;4.920;2022-12-07T07:01:13;8.70;;;4.05;;
59734;SDS011;64362;45.620;4.920;2022-12-07T07:03:46;7.60;;;3.97;;
59734;SDS011;64362;45.620;4.920;2022-12-07T07:06:18;6.55;;;3.35;;
59734;SDS011;64362;45.620;4.920;2022-12-07T07:08:50;5.32;;;3.38;;
59734;SDS011;64362;45.620;4.920;2022-12-07T07:11:16;5.97;;;3.42;;
59734;SDS011;64362;45.620;4.920;2022-12-07T07:13:48;6.10;;;3.85;;
59734;SDS011;64362;45.620;4.920;2022-12-07T07:16:14;5.07;;;3.47;;
59734;SDS011;64362;45.620;4.920;2022-12-07T07:18:46;6.72;;;3.75;;
59734;SDS011;64362;45.620;4.920;2022-12-07T07:21:12;6.20;;;3.80;;
59734;SDS011;64362;45.620;4.920;2022-12-07T07:23:43;7.70;;;3.63;;
59734;SDS011;64362;45.620;4.920;2022-12-07T07:26:15;5.78;;;3.40;;
59734;SDS011;64362;45.620;4.920;2022-12-07T07:28:41;5.65;;;3.17;;
59734;SDS011;64362;45.620;4.920;2022-12-07T07:31:13;7.57;;;3.67;;
59734;SDS011;64362;45.620;4.920;2022-12-07T07:33:46;8.88;;;3.53;;
59734;SDS011;64362;45.620;4.920;2022-12-07T07:36:32;5.32;;;3.40;;
59734;SDS011;64362;45.620;4.920;2022-12-07T07:39:04;6.22;;;3.10;;
59734;SDS011;64362;45.620;4.920;2022-12-07T07:41:30;5.07;;;3.13;;
59734;SDS011;64362;45.620;4.920;2022-12-07T07:44:02;5.40;;;3.38;;
59734;SDS011;64362;45.620;4.920;2022-12-07T07:46:28;5.60;;;3.13;;
59734;SDS011;64362;45.620;4.920;2022-12-07T07:49:00;5.65;;;3.03;;
59734;SDS011;64362;45.620;4.920;2022-12-07T07:51:26;4.85;;;3.05;;
59734;SDS011;64362;45.620;4.920;2022-12-07T07:53:57;3.70;;;2.70;;
59734;SDS011;64362;45.620;4.920;2022-12-07T07:56:29;5.30;;;3.30;;
59734;SDS011;64362;45.620;4.920;2022-12-07T07:59:01;6.20;;;3.20;;
59734;SDS011;64362;45.620;4.920;2022-12-07T08:01:27;5.75;;;3.35;;
59734;SDS011;64362;45.620;4.920;2022-12-07T08:03:58;4.63;;;3.00;;
59734;SDS011;64362;45.620;4.920;2022-12-07T08:06:30;3.70;;;2.65;;
59734;SDS011;64362;45.620;4.920;2022-12-07T08:09:02;4.25;;;2.75;;
59734;SDS011;64362;45.620;4.920;2022-12-07T08:11:30;5.97;;;2.78;;
59734;SDS011;64362;45.620;4.920;2022-12-07T08:14:01;4.18;;;3.08;;
59734;SDS011;64362;45.620;4.920;2022-12-07T08:16:33;3.63;;;2.90;;
59734;SDS011;64362;45.620;4.920;2022-12-07T08:19:05;3.97;;;2.72;;
59734;SDS011;64362;45.620;4.920;2022-12-07T08:21:37;4.82;;;3.10;;
59734;SDS011;64362;45.620;4.920;2022-12-07T08:24:09;4.38;;;2.63;;
59734;SDS011;64362;45.620;4.920;2022-12-07T08:26:35;5.45;;;3.45;;
59734;SDS011;64362;45.620;4.920;2022-12-07T08:29:06;3.92;;;2.92;;
59734;SDS011;64362;45.620;4.920;2022-12-07T08:31:38;4.15;;;3.13;;
59734;SDS011;64362;45.620;4.920;2022-12-07T08:34:11;4.97;;;3.08;;
59734;SDS011;64362;45.620;4.920;2022-12-07T08:36:43;6.68;;;3.80;;
59734;SDS011;64362;45.620;4.920;2022-12-07T08:39:09;3.85;;;2.65;;
59734;SDS011;64362;45.620;4.920;2022-12-07T08:41:42;4.00;;;2.78;;
59734;SDS011;64362;45.620;4.920;2022-12-07T08:44:08;4.43;;;2.63;;
59734;SDS011;64362;45.620;4.920;2022-12-07T08:46:40;5.03;;;3.08;;
59734;SDS011;64362;45.620;4.920;2022-12-07T08:49:20;4.15;;;3.05;;
59734;SDS011;64362;45.620;4.920;2022-12-07T08:51:55;4.50;;;3.40;;
59734;SDS011;64362;45.620;4.920;2022-12-07T08:54:27;4.20;;;3.35;;
59734;SDS011;64362;45.620;4.920;2022-12-07T08:56:59;4.15;;;3.20;;
59734;SDS011;64362;45.620;4.920;2022-12-07T08:59:25;4.35;;;2.83;;
59734;SDS011;64362;45.620;4.920;2022-12-07T09:01:58;4.15;;;2.95;;
59734;SDS011;64362;45.620;4.920;2022-12-07T09:04:24;5.15;;;3.15;;
59734;SDS011;64362;45.620;4.920;2022-12-07T09:06:55;4.05;;;2.85;;
59734;SDS011;64362;45.620;4.920;2022-12-07T09:09:27;4.88;;;2.97;;
59734;SDS011;64362;45.620;4.920;2022-12-07T09:11:53;3.50;;;2.78;;
59734;SDS011;64362;45.620;4.920;2022-12-07T09:14:24;3.25;;;2.55;;
59734;SDS011;64362;45.620;4.920;2022-12-07T09:16:50;4.28;;;3.00;;
59734;SDS011;64362;45.620;4.920;2022-12-07T09:19:22;4.32;;;2.90;;
59734;SDS011;64362;45.620;4.920;2022-12-07T09:21:47;4.80;;;3.40;;
59734;SDS011;64362;45.620;4.920;2022-12-07T09:24:18;4.15;;;2.95;;
59734;SDS011;64362;45.620;4.920;2022-12-07T09:26:50;4.25;;;2.80;;
59734;SDS011;64362;45.620;4.920;2022-12-07T09:29:16;4.20;;;3.30;;
59734;SDS011;64362;45.620;4.920;2022-12-07T09:31:48;3.88;;;2.90;;
59734;SDS011;64362;45.620;4.920;2022-12-07T09:34:14;3.72;;;2.78;;
59734;SDS011;64362;45.620;4.920;2022-12-07T09:36:45;3.65;;;2.45;;
59734;SDS011;64362;45.620;4.920;2022-12-07T09:39:17;4.78;;;2.97;;
59734;SDS011;64362;45.620;4.920;2022-12-07T09:41:50;3.63;;;2.60;;
59734;SDS011;64362;45.620;4.920;2022-12-07T09:44:20;4.78;;;3.38;;
59734;SDS011;64362;45.620;4.920;2022-12-07T09:46:55;4.50;;;3.30;;
59734;SDS011;64362;45.620;4.920;2022-12-07T09:49:28;4.68;;;3.13;;
59734;SDS011;64362;45.620;4.920;2022-12-07T09:52:03;4.00;;;3.00;;
59734;SDS011;64362;45.620;4.920;2022-12-07T09:54:50;4.50;;;3.35;;
59734;SDS011;64362;45.620;4.920;2022-12-07T09:57:16;4.53;;;3.40;;
59734;SDS011;64362;45.620;4.920;2022-12-07T09:59:49;4.40;;;3.50;;
59734;SDS011;64362;45.620;4.920;2022-12-07T10:05:06;4.55;;;3.38;;
59734;SDS011;64362;45.620;4.920;2022-12-07T10:07:44;4.78;;;3.63;;
59734;SDS011;64362;45.620;4.920;2022-12-07T10:10:12;5.85;;;3.92;;
59734;SDS011;64362;45.620;4.920;2022-12-07T10:13:00;5.05;;;3.67;;
59734;SDS011;64362;45.620;4.920;2022-12-07T10:15:44;5.50;;;3.55;;
59734;SDS011;64362;45.620;4.920;2022-12-07T10:21:10;5.93;;;3.78;;
59734;SDS011;64362;45.620;4.920;2022-12-07T10:24:01;5.28;;;3.63;;
59734;SDS011;64362;45.620;4.920;2022-12-07T10:26:46;5.65;;;4.25;;
59734;SDS011;64362;45.620;4.920;2022-12-07T10:29:36;5.57;;;3.60;;
59734;SDS011;64362;45.620;4.920;2022-12-07T10:34:47;5.75;;;4.05;;
59734;SDS011;64362;45.620;4.920;2022-12-07T10:37:26;5.20;;;4.10;;
59734;SDS011;64362;45.620;4.920;2022-12-07T10:39:59;5.60;;;3.80;;
59734;SDS011;64362;45.620;4.920;2022-12-07T10:42:31;4.85;;;3.47;;
59734;SDS011;64362;45.620;4.920;2022-12-07T10:45:14;6.65;;;3.90;;
59734;SDS011;64362;45.620;4.920;2022-12-07T10:48:21;5.38;;;3.80;;
59734;SDS011;64362;45.620;4.920;2022-12-07T10:56:46;5.10;;;3.80;;
59734;SDS011;64362;45.620;4.920;2022-12-07T11:05:03;5.72;;;3.70;;
59734;SDS011;64362;45.620;4.920;2022-12-07T11:08:09;5.65;;;4.18;;
59734;SDS011;64362;45.620;4.920;2022-12-07T11:11:16;5.20;;;3.58;;
59734;SDS011;64362;45.620;4.920;2022-12-07T11:22:06;6.10;;;4.22;;
59734;SDS011;64362;45.620;4.920;2022-12-07T11:27:26;5.70;;;4.00;;
59734;SDS011;64362;45.620;4.920;2022-12-07T11:38:41;5.22;;;3.70;;
59734;SDS011;64362;45.620;4.920;2022-12-07T11:41:18;5.80;;;4.03;;
59734;SDS011;64362;45.620;4.920;2022-12-07T11:46:50;6.15;;;4.20;;
59734;SDS011;64362;45.620;4.920;2022-12-07T11:49:34;7.22;;;4.28;;
59734;SDS011;64362;45.620;4.920;2022-12-07T11:52:21;6.03;;;4.20;;
59734;SDS011;64362;45.620;4.920;2022-12-07T11:54:57;6.03;;;4.23;;
59734;SDS011;64362;45.620;4.920;2022-12-07T11:57:26;5.60;;;4.20;;
59734;SDS011;64362;45.620;4.920;2022-12-07T12:00:05;5.25;;;4.05;;
59734;SDS011;64362;45.620;4.920;2022-12-07T12:05:25;5.22;;;3.90;;
59734;SDS011;64362;45.620;4.920;2022-12-07T12:08:10;5.57;;;4.38;;
59734;SDS011;64362;45.620;4.920;2022-12-07T12:22:46;6.40;;;4.53;;
59734;SDS011;64362;45.620;4.920;2022-12-07T12:25:48;7.32;;;4.22;;
59734;SDS011;64362;45.620;4.920;2022-12-07T12:28:37;6.45;;;4.35;;
59734;SDS011;64362;45.620;4.920;2022-12-07T12:33:42;6.85;;;5.28;;
59734;SDS011;64362;45.620;4.920;2022-12-07T12:39:09;6.80;;;4.70;;
59734;SDS011;64362;45.620;4.920;2022-12-07T12:41:53;6.80;;;4.65;;
59734;SDS011;64362;45.620;4.920;2022-12-07T12:47:02;6.82;;;4.15;;
59734;SDS011;64362;45.620;4.920;2022-12-07T12:50:36;5.90;;;4.55;;
59734;SDS011;64362;45.620;4.920;2022-12-07T12:52:53;6.15;;;4.80;;
59734;SDS011;64362;45.620;4.920;2022-12-07T12:56:34;6.03;;;4.40;;
59734;SDS011;64362;45.620;4.920;2022-12-07T13:07:02;5.40;;;4.75;;
59734;SDS011;64362;45.620;4.920;2022-12-07T13:09:34;5.80;;;4.50;;
59734;SDS011;64362;45.620;4.920;2022-12-07T13:12:14;6.82;;;4.65;;
59734;SDS011;64362;45.620;4.920;2022-12-07T13:14:54;5.63;;;4.47;;
59734;SDS011;64362;45.620;4.920;2022-12-07T13:20:03;6.00;;;4.25;;
59734;SDS011;64362;45.620;4.920;2022-12-07T13:27:51;4.90;;;3.78;;
59734;SDS011;64362;45.620;4.920;2022-12-07T13:30:27;6.00;;;4.32;;
59734;SDS011;64362;45.620;4.920;2022-12-07T13:33:03;5.32;;;4.20;;
59734;SDS011;64362;45.620;4.920;2022-12-07T13:35:33;5.90;;;4.47;;
59734;SDS011;64362;45.620;4.920;2022-12-07T13:41:11;5.38;;;3.92;;
59734;SDS011;64362;45.620;4.920;2022-12-07T13:43:48;6.20;;;4.53;;
59734;SDS011;64362;45.620;4.920;2022-12-07T13:46:14;6.75;;;4.63;;
59734;SDS011;64362;45.620;4.920;2022-12-07T13:48:49;5.25;;;4.05;;
59734;SDS011;64362;45.620;4.920;2022-12-07T13:51:17;5.45;;;4.32;;
59734;SDS011;64362;45.620;4.920;2022-12-07T13:54:07;5.93;;;4.53;;
59734;SDS011;64362;45.620;4.920;2022-12-07T13:56:41;5.45;;;4.35;;
59734;SDS011;64362;45.620;4.920;2022-12-07T13:59:13;5.32;;;4.07;;
59734;SDS011;64362;45.620;4.920;2022-12-07T14:01:47;5.93;;;4.10;;
59734;SDS011;64362;45.620;4.920;2022-12-07T14:04:30;5.30;;;4.35;;
59734;SDS011;64362;45.620;4.920;2022-12-07T14:07:18;5.40;;;4.07;;
59734;SDS011;64362;45.620;4.920;2022-12-07T14:09:59;6.28;;;4.43;;
59734;SDS011;64362;45.620;4.920;2022-12-07T14:12:32;6.57;;;4.50;;
59734;SDS011;64362;45.620;4.920;2022-12-07T14:15:15;5.95;;;4.47;;
59734;SDS011;64362;45.620;4.920;2022-12-07T14:17:53;6.70;;;4.30;;
59734;SDS011;64362;45.620;4.920;2022-12-07T14:20:33;5.05;;;4.35;;
59734;SDS011;64362;45.620;4.920;2022-12-07T14:23:29;6.32;;;4.60;;
59734;SDS011;64362;45.620;4.920;2022-12-07T14:26:16;6.43;;;4.65;;
59734;SDS011;64362;45.620;4.920;2022-12-07T14:28:50;6.13;;;4.57;;
59734;SDS011;64362;45.620;4.920;2022-12-07T14:31:17;5.22;;;4.53;;
59734;SDS011;64362;45.620;4.920;2022-12-07T14:33:52;6.97;;;4.30;;
59734;SDS011;64362;45.620;4.920;2022-12-07T14:36:30;6.85;;;4.47;;
59734;SDS011;64362;45.620;4.920;2022-12-07T14:39:02;5.57;;;3.97;;
59734;SDS011;64362;45.620;4.920;2022-12-07T14:41:34;6.28;;;4.43;;
59734;SDS011;64362;45.620;4.920;2022-12-07T14:44:22;5.05;;;4.28;;
59734;SDS011;64362;45.620;4.920;2022-12-07T14:46:48;7.05;;;4.88;;
59734;SDS011;64362;45.620;4.920;2022-12-07T14:49:21;7.35;;;4.60;;
59734;SDS011;64362;45.620;4.920;2022-12-07T14:51:47;5.95;;;4.70;;
59734;SDS011;64362;45.620;4.920;2022-12-07T14:54:20;6.55;;;4.57;;
59734;SDS011;64362;45.620;4.920;2022-12-07T14:56:52;5.40;;;4.25;;
59734;SDS011;64362;45.620;4.920;2022-12-07T14:59:18;5.90;;;4.47;;
59734;SDS011;64362;45.620;4.920;2022-12-07T15:01:50;5.50;;;4.32;;
59734;SDS011;64362;45.620;4.920;2022-12-07T15:04:16;6.57;;;4.57;;
59734;SDS011;64362;45.620;4.920;2022-12-07T15:06:57;5.45;;;4.20;;
59734;SDS011;64362;45.620;4.920;2022-12-07T15:09:31;5.57;;;4.07;;
59734;SDS011;64362;45.620;4.920;2022-12-07T15:11:56;5.28;;;4.10;;
59734;SDS011;64362;45.620;4.920;2022-12-07T15:14:28;6.40;;;4.32;;
59734;SDS011;64362;45.620;4.920;2022-12-07T15:16:54;4.60;;;3.83;;
59734;SDS011;64362;45.620;4.920;2022-12-07T15:19:26;5.43;;;4.05;;
59734;SDS011;64362;45.620;4.920;2022-12-07T15:21:52;6.43;;;3.92;;
59734;SDS011;64362;45.620;4.920;2022-12-07T15:24:25;6.38;;;4.70;;
59734;SDS011;64362;45.620;4.920;2022-12-07T15:26:51;5.28;;;4.20;;
59734;SDS011;64362;45.620;4.920;2022-12-07T15:29:24;5.60;;;4.05;;
59734;SDS011;64362;45.620;4.920;2022-12-07T15:31:50;5.30;;;4.00;;
59734;SDS011;64362;45.620;4.920;2022-12-07T15:34:23;5.80;;;4.15;;
59734;SDS011;64362;45.620;4.920;2022-12-07T15:36:57;4.65;;;3.60;;
59734;SDS011;64362;45.620;4.920;2022-12-07T15:39:36;5.00;;;3.70;;
59734;SDS011;64362;45.620;4.920;2022-12-07T15:42:01;4.93;;;3.80;;
59734;SDS011;64362;45.620;4.920;2022-12-07T15:44:41;5.47;;;3.90;;
59734;SDS011;64362;45.620;4.920;2022-12-07T15:47:35;5.82;;;4.05;;
59734;SDS011;64362;45.620;4.920;2022-12-07T15:50:02;5.70;;;4.05;;
59734;SDS011;64362;45.620;4.920;2022-12-07T15:52:36;5.25;;;3.92;;
59734;SDS011;64362;45.620;4.920;2022-12-07T15:55:08;6.05;;;4.38;;
59734;SDS011;64362;45.620;4.920;2022-12-07T15:57:35;5.28;;;4.05;;
59734;SDS011;64362;45.620;4.920;2022-12-07T16:00:09;5.20;;;4.25;;
59734;SDS011;64362;45.620;4.920;2022-12-07T16:02:36;4.60;;;3.78;;
59734;SDS011;64362;45.620;4.920;2022-12-07T16:05:08;5.57;;;4.10;;
59734;SDS011;64362;45.620;4.920;2022-12-07T16:07:40;5.65;;;4.13;;
59734;SDS011;64362;45.620;4.920;2022-12-07T16:10:12;5.18;;;4.03;;
59734;SDS011;64362;45.620;4.920;2022-12-07T16:12:44;5.53;;;4.22;;
59734;SDS011;64362;45.620;4.920;2022-12-07T16:15:09;5.63;;;4.22;;
59734;SDS011;64362;45.620;4.920;2022-12-07T16:17:42;6.03;;;4.15;;
59734;SDS011;64362;45.620;4.920;2022-12-07T16:20:14;6.28;;;4.50;;
59734;SDS011;64362;45.620;4.920;2022-12-07T16:22:46;5.15;;;4.28;;
59734;SDS011;64362;45.620;4.920;2022-12-07T16:25:18;5.88;;;4.80;;
59734;SDS011;64362;45.620;4.920;2022-12-07T16:27:53;6.53;;;4.72;;
59734;SDS011;64362;45.620;4.920;2022-12-07T16:30:19;6.55;;;4.97;;
59734;SDS011;64362;45.620;4.920;2022-12-07T16:32:51;7.53;;;4.88;;
59734;SDS011;64362;45.620;4.920;2022-12-07T16:35:16;6.20;;;4.53;;
59734;SDS011;64362;45.620;4.920;2022-12-07T16:37:56;6.53;;;4.78;;
59734;SDS011;64362;45.620;4.920;2022-12-07T16:40:28;7.03;;;4.97;;
59734;SDS011;64362;45.620;4.920;2022-12-07T16:42:53;8.23;;;5.30;;
59734;SDS011;64362;45.620;4.920;2022-12-07T16:45:25;6.13;;;5.03;;
59734;SDS011;64362;45.620;4.920;2022-12-07T16:47:50;6.07;;;4.70;;
59734;SDS011;64362;45.620;4.920;2022-12-07T16:50:22;9.68;;;5.50;;
59734;SDS011;64362;45.620;4.920;2022-12-07T16:52:54;7.50;;;5.10;;
59734;SDS011;64362;45.620;4.920;2022-12-07T16:55:19;6.88;;;5.18;;
59734;SDS011;64362;45.620;4.920;2022-12-07T16:57:51;6.93;;;5.75;;
59734;SDS011;64362;45.620;4.920;2022-12-07T17:00:24;8.20;;;5.47;;
59734;SDS011;64362;45.620;4.920;2022-12-07T17:02:49;6.18;;;5.18;;
59734;SDS011;64362;45.620;4.920;2022-12-07T17:05:22;9.43;;;5.50;;
59734;SDS011;64362;45.620;4.920;2022-12-07T17:07:48;9.15;;;5.85;;
59734;SDS011;64362;45.620;4.920;2022-12-07T17:10:21;9.18;;;5.78;;
59734;SDS011;64362;45.620;4.920;2022-12-07T17:12:54;9.55;;;5.75;;
59734;SDS011;64362;45.620;4.920;2022-12-07T17:15:19;10.43;;;5.05;;
59734;SDS011;64362;45.620;4.920;2022-12-07T17:17:53;9.48;;;5.32;;
59734;SDS011;64362;45.620;4.920;2022-12-07T17:20:26;10.80;;;5.47;;
59734;SDS011;64362;45.620;4.920;2022-12-07T17:22:52;8.98;;;5.50;;
59734;SDS011;64362;45.620;4.920;2022-12-07T17:25:24;8.85;;;5.50;;
59734;SDS011;64362;45.620;4.920;2022-12-07T17:27:49;7.82;;;5.32;;
59734;SDS011;64362;45.620;4.920;2022-12-07T17:30:22;9.38;;;5.30;;
59734;SDS011;64362;45.620;4.920;2022-12-07T17:32:54;10.10;;;6.30;;
59734;SDS011;64362;45.620;4.920;2022-12-07T17:35:26;8.38;;;5.78;;
59734;SDS011;64362;45.620;4.920;2022-12-07T17:37:58;8.38;;;6.15;;
59734;SDS011;64362;45.620;4.920;2022-12-07T17:40:37;10.20;;;5.80;;
59734;SDS011;64362;45.620;4.920;2022-12-07T17:43:09;11.82;;;5.53;;
59734;SDS011;64362;45.620;4.920;2022-12-07T17:45:42;10.93;;;6.18;;
59734;SDS011;64362;45.620;4.920;2022-12-07T17:48:21;10.90;;;6.25;;